sensor_id;sensor_type;location;lat;lon;timestamp;P1;durP1;ratioP1;P2;durP2;ratioP2
24206;SDS011;12351;52.284;9.160;2023-07-30T00:01:42;2.07;;;1.30;;
24206;SDS011;12351;52.284;9.160;2023-07-30T00:04:31;1.47;;;1.37;;
24206;SDS011;12351;52.284;9.160;2023-07-30T00:07:21;2.50;;;1.53;;
24206;SDS011;12351;52.284;9.160;2023-07-30T00:10:10;2.73;;;1.63;;
24206;SDS011;12351;52.284;9.160;2023-07-30T00:15:50;2.33;;;1.50;;
24206;SDS011;12351;52.284;9.160;2023-07-30T00:18:41;2.43;;;1.40;;
24206;SDS011;12351;52.284;9.160;2023-07-30T00:21:28;4.03;;;1.50;;
24206;SDS011;12351;52.284;9.160;2023-07-30T00:24:15;3.17;;;1.60;;
24206;SDS011;12351;52.284;9.160;2023-07-30T00:27:02;2.90;;;1.70;;
24206;SDS011;12351;52.284;9.160;2023-07-30T00:29:48;1.83;;;1.60;;
24206;SDS011;12351;52.284;9.160;2023-07-30T00:32:35;3.67;;;1.80;;
24206;SDS011;12351;52.284;9.160;2023-07-30T00:35:24;2.40;;;1.90;;
24206;SDS011;12351;52.284;9.160;2023-07-30T00:38:10;2.70;;;1.93;;
24206;SDS011;12351;52.284;9.160;2023-07-30T00:40:57;3.93;;;2.07;;
24206;SDS011;12351;52.284;9.160;2023-07-30T00:43:44;2.53;;;2.20;;
24206;SDS011;12351;52.284;9.160;2023-07-30T00:46:31;5.47;;;2.10;;
24206;SDS011;12351;52.284;9.160;2023-07-30T00:49:18;2.00;;;1.73;;
24206;SDS011;12351;52.284;9.160;2023-07-30T00:52:05;2.77;;;2.20;;
24206;SDS011;12351;52.284;9.160;2023-07-30T00:54:52;2.30;;;1.90;;
24206;SDS011;12351;52.284;9.160;2023-07-30T00:57:41;2.27;;;1.93;;
24206;SDS011;12351;52.284;9.160;2023-07-30T01:00:28;2.53;;;1.90;;
24206;SDS011;12351;52.284;9.160;2023-07-30T01:03:16;2.70;;;2.10;;
24206;SDS011;12351;52.284;9.160;2023-07-30T01:06:04;4.97;;;2.13;;
24206;SDS011;12351;52.284;9.160;2023-07-30T01:08:51;3.40;;;2.27;;
24206;SDS011;12351;52.284;9.160;2023-07-30T01:11:38;5.37;;;2.20;;
24206;SDS011;12351;52.284;9.160;2023-07-30T01:14:26;4.30;;;2.13;;
24206;SDS011;12351;52.284;9.160;2023-07-30T01:17:13;4.60;;;2.13;;
24206;SDS011;12351;52.284;9.160;2023-07-30T01:20:00;2.63;;;1.90;;
24206;SDS011;12351;52.284;9.160;2023-07-30T01:22:47;2.80;;;2.00;;
24206;SDS011;12351;52.284;9.160;2023-07-30T01:25:36;3.67;;;2.13;;
24206;SDS011;12351;52.284;9.160;2023-07-30T01:28:23;5.97;;;1.93;;
24206;SDS011;12351;52.284;9.160;2023-07-30T01:31:11;3.87;;;1.90;;
24206;SDS011;12351;52.284;9.160;2023-07-30T01:34:00;4.40;;;1.93;;
24206;SDS011;12351;52.284;9.160;2023-07-30T01:36:51;2.77;;;2.00;;
24206;SDS011;12351;52.284;9.160;2023-07-30T01:39:39;4.03;;;1.77;;
24206;SDS011;12351;52.284;9.160;2023-07-30T01:42:28;2.93;;;1.80;;
24206;SDS011;12351;52.284;9.160;2023-07-30T01:45:16;3.13;;;1.90;;
24206;SDS011;12351;52.284;9.160;2023-07-30T01:48:03;2.93;;;1.80;;
24206;SDS011;12351;52.284;9.160;2023-07-30T01:50:50;4.07;;;1.90;;
24206;SDS011;12351;52.284;9.160;2023-07-30T01:53:37;3.33;;;2.00;;
24206;SDS011;12351;52.284;9.160;2023-07-30T01:56:24;3.83;;;1.90;;
24206;SDS011;12351;52.284;9.160;2023-07-30T01:59:10;2.83;;;1.77;;
24206;SDS011;12351;52.284;9.160;2023-07-30T02:01:57;3.23;;;1.70;;
24206;SDS011;12351;52.284;9.160;2023-07-30T02:04:44;2.83;;;1.63;;
24206;SDS011;12351;52.284;9.160;2023-07-30T02:07:30;5.20;;;2.20;;
24206;SDS011;12351;52.284;9.160;2023-07-30T02:10:17;5.80;;;1.90;;
24206;SDS011;12351;52.284;9.160;2023-07-30T02:13:04;3.50;;;1.93;;
24206;SDS011;12351;52.284;9.160;2023-07-30T02:15:51;3.53;;;1.67;;
24206;SDS011;12351;52.284;9.160;2023-07-30T02:18:38;4.93;;;1.90;;
24206;SDS011;12351;52.284;9.160;2023-07-30T02:21:25;3.60;;;1.70;;
24206;SDS011;12351;52.284;9.160;2023-07-30T02:24:12;5.30;;;1.70;;
24206;SDS011;12351;52.284;9.160;2023-07-30T02:26:59;2.67;;;1.80;;
24206;SDS011;12351;52.284;9.160;2023-07-30T02:29:46;6.47;;;2.00;;
24206;SDS011;12351;52.284;9.160;2023-07-30T02:32:33;4.58;;;1.47;;
24206;SDS011;12351;52.284;9.160;2023-07-30T02:35:20;4.70;;;2.10;;
24206;SDS011;12351;52.284;9.160;2023-07-30T02:38:07;6.75;;;2.05;;
24206;SDS011;12351;52.284;9.160;2023-07-30T02:40:54;3.65;;;1.77;;
24206;SDS011;12351;52.284;9.160;2023-07-30T02:43:41;4.45;;;2.10;;
24206;SDS011;12351;52.284;9.160;2023-07-30T02:46:27;5.23;;;1.93;;
24206;SDS011;12351;52.284;9.160;2023-07-30T02:49:15;2.90;;;1.60;;
24206;SDS011;12351;52.284;9.160;2023-07-30T02:52:02;3.65;;;1.77;;
24206;SDS011;12351;52.284;9.160;2023-07-30T02:54:49;2.87;;;1.67;;
24206;SDS011;12351;52.284;9.160;2023-07-30T02:57:36;5.00;;;2.10;;
24206;SDS011;12351;52.284;9.160;2023-07-30T03:00:23;3.70;;;2.00;;
24206;SDS011;12351;52.284;9.160;2023-07-30T03:03:10;4.03;;;1.90;;
24206;SDS011;12351;52.284;9.160;2023-07-30T03:05:57;6.22;;;2.10;;
24206;SDS011;12351;52.284;9.160;2023-07-30T03:08:44;3.52;;;1.80;;
24206;SDS011;12351;52.284;9.160;2023-07-30T03:11:31;4.97;;;1.90;;
24206;SDS011;12351;52.284;9.160;2023-07-30T03:14:17;4.40;;;2.10;;
24206;SDS011;12351;52.284;9.160;2023-07-30T03:17:05;4.33;;;2.05;;
24206;SDS011;12351;52.284;9.160;2023-07-30T03:19:53;4.67;;;2.10;;
24206;SDS011;12351;52.284;9.160;2023-07-30T03:22:40;4.08;;;2.10;;
24206;SDS011;12351;52.284;9.160;2023-07-30T03:25:27;5.53;;;2.15;;
24206;SDS011;12351;52.284;9.160;2023-07-30T03:28:14;6.10;;;2.30;;
24206;SDS011;12351;52.284;9.160;2023-07-30T03:31:01;4.03;;;2.35;;
24206;SDS011;12351;52.284;9.160;2023-07-30T03:33:48;4.17;;;2.37;;
24206;SDS011;12351;52.284;9.160;2023-07-30T03:36:36;5.53;;;2.42;;
24206;SDS011;12351;52.284;9.160;2023-07-30T03:39:23;4.47;;;2.45;;
24206;SDS011;12351;52.284;9.160;2023-07-30T03:42:10;6.75;;;3.08;;
24206;SDS011;12351;52.284;9.160;2023-07-30T03:44:57;6.00;;;2.98;;
24206;SDS011;12351;52.284;9.160;2023-07-30T03:47:44;3.87;;;2.70;;
24206;SDS011;12351;52.284;9.160;2023-07-30T03:50:31;5.83;;;2.90;;
24206;SDS011;12351;52.284;9.160;2023-07-30T03:53:18;6.08;;;3.10;;
24206;SDS011;12351;52.284;9.160;2023-07-30T03:56:05;4.95;;;3.10;;
24206;SDS011;12351;52.284;9.160;2023-07-30T03:58:52;6.75;;;3.25;;
24206;SDS011;12351;52.284;9.160;2023-07-30T04:01:39;6.53;;;3.20;;
24206;SDS011;12351;52.284;9.160;2023-07-30T04:04:26;7.65;;;3.22;;
24206;SDS011;12351;52.284;9.160;2023-07-30T04:07:13;5.05;;;3.35;;
24206;SDS011;12351;52.284;9.160;2023-07-30T04:10:00;7.47;;;3.42;;
24206;SDS011;12351;52.284;9.160;2023-07-30T04:12:46;4.78;;;3.72;;
24206;SDS011;12351;52.284;9.160;2023-07-30T04:15:34;8.30;;;3.87;;
24206;SDS011;12351;52.284;9.160;2023-07-30T04:18:21;7.78;;;3.65;;
24206;SDS011;12351;52.284;9.160;2023-07-30T04:21:08;6.62;;;4.17;;
24206;SDS011;12351;52.284;9.160;2023-07-30T04:23:55;7.00;;;4.10;;
24206;SDS011;12351;52.284;9.160;2023-07-30T04:26:43;5.67;;;3.67;;
24206;SDS011;12351;52.284;9.160;2023-07-30T04:29:30;6.70;;;4.10;;
24206;SDS011;12351;52.284;9.160;2023-07-30T04:32:17;5.03;;;3.62;;
24206;SDS011;12351;52.284;9.160;2023-07-30T04:35:04;6.60;;;3.40;;
24206;SDS011;12351;52.284;9.160;2023-07-30T04:37:51;8.95;;;3.37;;
24206;SDS011;12351;52.284;9.160;2023-07-30T04:40:38;7.58;;;3.52;;
24206;SDS011;12351;52.284;9.160;2023-07-30T04:43:25;5.63;;;3.13;;
24206;SDS011;12351;52.284;9.160;2023-07-30T04:46:12;7.78;;;3.20;;
24206;SDS011;12351;52.284;9.160;2023-07-30T04:49:01;9.68;;;3.17;;
24206;SDS011;12351;52.284;9.160;2023-07-30T04:51:49;6.78;;;2.77;;
24206;SDS011;12351;52.284;9.160;2023-07-30T04:54:36;5.53;;;2.80;;
24206;SDS011;12351;52.284;9.160;2023-07-30T04:57:23;5.40;;;2.75;;
24206;SDS011;12351;52.284;9.160;2023-07-30T05:00:11;7.00;;;2.55;;
24206;SDS011;12351;52.284;9.160;2023-07-30T05:02:58;4.97;;;2.80;;
24206;SDS011;12351;52.284;9.160;2023-07-30T05:05:45;6.08;;;2.55;;
24206;SDS011;12351;52.284;9.160;2023-07-30T05:08:31;6.13;;;2.40;;
24206;SDS011;12351;52.284;9.160;2023-07-30T05:11:18;5.53;;;2.42;;
24206;SDS011;12351;52.284;9.160;2023-07-30T05:14:05;7.97;;;2.70;;
24206;SDS011;12351;52.284;9.160;2023-07-30T05:16:52;4.67;;;2.05;;
24206;SDS011;12351;52.284;9.160;2023-07-30T05:19:39;6.58;;;2.20;;
24206;SDS011;12351;52.284;9.160;2023-07-30T05:22:26;4.77;;;2.10;;
24206;SDS011;12351;52.284;9.160;2023-07-30T05:25:13;4.60;;;1.95;;
24206;SDS011;12351;52.284;9.160;2023-07-30T05:28:01;3.90;;;1.77;;
24206;SDS011;12351;52.284;9.160;2023-07-30T05:30:48;3.05;;;1.80;;
24206;SDS011;12351;52.284;9.160;2023-07-30T05:33:34;4.60;;;2.00;;
24206;SDS011;12351;52.284;9.160;2023-07-30T05:36:21;4.50;;;2.10;;
24206;SDS011;12351;52.284;9.160;2023-07-30T05:39:08;3.17;;;1.80;;
24206;SDS011;12351;52.284;9.160;2023-07-30T05:41:55;4.47;;;2.10;;
24206;SDS011;12351;52.284;9.160;2023-07-30T05:44:42;5.17;;;1.90;;
24206;SDS011;12351;52.284;9.160;2023-07-30T05:47:29;3.37;;;1.70;;
24206;SDS011;12351;52.284;9.160;2023-07-30T05:50:16;3.37;;;1.97;;
24206;SDS011;12351;52.284;9.160;2023-07-30T05:53:03;4.00;;;1.63;;
24206;SDS011;12351;52.284;9.160;2023-07-30T05:55:49;5.57;;;1.93;;
24206;SDS011;12351;52.284;9.160;2023-07-30T05:58:36;5.47;;;1.50;;
24206;SDS011;12351;52.284;9.160;2023-07-30T06:01:23;5.53;;;1.85;;
24206;SDS011;12351;52.284;9.160;2023-07-30T06:04:10;8.87;;;2.00;;
24206;SDS011;12351;52.284;9.160;2023-07-30T06:06:58;6.35;;;1.67;;
24206;SDS011;12351;52.284;9.160;2023-07-30T06:09:46;3.87;;;1.70;;
24206;SDS011;12351;52.284;9.160;2023-07-30T06:12:32;4.93;;;1.53;;
24206;SDS011;12351;52.284;9.160;2023-07-30T06:15:19;4.60;;;1.73;;
24206;SDS011;12351;52.284;9.160;2023-07-30T06:18:06;4.20;;;1.85;;
24206;SDS011;12351;52.284;9.160;2023-07-30T06:20:53;5.10;;;1.90;;
24206;SDS011;12351;52.284;9.160;2023-07-30T06:23:40;4.93;;;1.83;;
24206;SDS011;12351;52.284;9.160;2023-07-30T06:26:27;5.73;;;1.80;;
24206;SDS011;12351;52.284;9.160;2023-07-30T06:29:14;5.90;;;1.80;;
24206;SDS011;12351;52.284;9.160;2023-07-30T06:32:01;3.80;;;1.80;;
24206;SDS011;12351;52.284;9.160;2023-07-30T06:34:48;6.47;;;1.80;;
24206;SDS011;12351;52.284;9.160;2023-07-30T06:37:35;4.12;;;2.05;;
24206;SDS011;12351;52.284;9.160;2023-07-30T06:40:22;5.65;;;2.00;;
24206;SDS011;12351;52.284;9.160;2023-07-30T06:43:09;5.23;;;1.90;;
24206;SDS011;12351;52.284;9.160;2023-07-30T06:45:56;4.70;;;1.90;;
24206;SDS011;12351;52.284;9.160;2023-07-30T06:48:42;4.83;;;1.87;;
24206;SDS011;12351;52.284;9.160;2023-07-30T06:51:29;4.83;;;1.87;;
24206;SDS011;12351;52.284;9.160;2023-07-30T06:54:16;6.03;;;1.87;;
24206;SDS011;12351;52.284;9.160;2023-07-30T06:57:03;4.93;;;2.10;;
24206;SDS011;12351;52.284;9.160;2023-07-30T06:59:50;5.37;;;2.13;;
24206;SDS011;12351;52.284;9.160;2023-07-30T07:02:37;7.40;;;2.07;;
24206;SDS011;12351;52.284;9.160;2023-07-30T07:05:24;5.73;;;2.47;;
24206;SDS011;12351;52.284;9.160;2023-07-30T07:08:11;6.60;;;2.50;;
24206;SDS011;12351;52.284;9.160;2023-07-30T07:10:58;5.45;;;2.70;;
24206;SDS011;12351;52.284;9.160;2023-07-30T07:13:44;7.17;;;2.70;;
24206;SDS011;12351;52.284;9.160;2023-07-30T07:16:31;6.10;;;2.73;;
24206;SDS011;12351;52.284;9.160;2023-07-30T07:19:18;6.37;;;3.03;;
24206;SDS011;12351;52.284;9.160;2023-07-30T07:22:05;7.00;;;3.50;;
24206;SDS011;12351;52.284;9.160;2023-07-30T07:24:52;5.77;;;3.43;;
24206;SDS011;12351;52.284;9.160;2023-07-30T07:27:39;7.37;;;3.58;;
24206;SDS011;12351;52.284;9.160;2023-07-30T07:30:26;6.80;;;3.77;;
24206;SDS011;12351;52.284;9.160;2023-07-30T07:33:13;8.10;;;3.77;;
24206;SDS011;12351;52.284;9.160;2023-07-30T07:36:02;6.70;;;4.00;;
24206;SDS011;12351;52.284;9.160;2023-07-30T07:38:51;7.65;;;3.92;;
24206;SDS011;12351;52.284;9.160;2023-07-30T07:41:38;6.53;;;3.83;;
24206;SDS011;12351;52.284;9.160;2023-07-30T07:44:24;6.83;;;4.00;;
24206;SDS011;12351;52.284;9.160;2023-07-30T07:47:11;8.80;;;4.80;;
24206;SDS011;12351;52.284;9.160;2023-07-30T07:49:58;5.57;;;4.23;;
24206;SDS011;12351;52.284;9.160;2023-07-30T07:52:45;9.20;;;5.15;;
24206;SDS011;12351;52.284;9.160;2023-07-30T07:55:32;10.80;;;4.97;;
24206;SDS011;12351;52.284;9.160;2023-07-30T07:58:18;6.63;;;5.03;;
24206;SDS011;12351;52.284;9.160;2023-07-30T08:01:05;10.30;;;5.27;;
24206;SDS011;12351;52.284;9.160;2023-07-30T08:03:52;8.73;;;5.30;;
24206;SDS011;12351;52.284;9.160;2023-07-30T08:06:39;9.25;;;5.35;;
24206;SDS011;12351;52.284;9.160;2023-07-30T08:09:26;6.60;;;4.93;;
24206;SDS011;12351;52.284;9.160;2023-07-30T08:12:13;11.00;;;5.60;;
24206;SDS011;12351;52.284;9.160;2023-07-30T08:15:00;9.13;;;5.10;;
24206;SDS011;12351;52.284;9.160;2023-07-30T08:17:48;11.65;;;4.97;;
24206;SDS011;12351;52.284;9.160;2023-07-30T08:20:35;9.87;;;5.50;;
24206;SDS011;12351;52.284;9.160;2023-07-30T08:23:22;7.57;;;5.30;;
24206;SDS011;12351;52.284;9.160;2023-07-30T08:26:09;9.98;;;5.95;;
24206;SDS011;12351;52.284;9.160;2023-07-30T08:28:57;9.80;;;6.35;;
24206;SDS011;12351;52.284;9.160;2023-07-30T08:31:43;9.60;;;6.83;;
24206;SDS011;12351;52.284;9.160;2023-07-30T08:34:30;11.22;;;7.08;;
24206;SDS011;12351;52.284;9.160;2023-07-30T08:37:18;10.32;;;7.20;;
24206;SDS011;12351;52.284;9.160;2023-07-30T08:40:04;8.27;;;7.17;;
24206;SDS011;12351;52.284;9.160;2023-07-30T08:42:52;8.78;;;7.67;;
24206;SDS011;12351;52.284;9.160;2023-07-30T08:45:40;10.68;;;8.03;;
24206;SDS011;12351;52.284;9.160;2023-07-30T08:48:26;9.73;;;7.70;;
24206;SDS011;12351;52.284;9.160;2023-07-30T08:51:14;10.98;;;8.08;;
24206;SDS011;12351;52.284;9.160;2023-07-30T08:54:01;11.50;;;8.03;;
24206;SDS011;12351;52.284;9.160;2023-07-30T08:56:49;10.63;;;8.83;;
24206;SDS011;12351;52.284;9.160;2023-07-30T08:59:39;10.78;;;8.30;;
24206;SDS011;12351;52.284;9.160;2023-07-30T09:02:30;11.40;;;8.23;;
24206;SDS011;12351;52.284;9.160;2023-07-30T09:05:17;10.88;;;8.53;;
24206;SDS011;12351;52.284;9.160;2023-07-30T09:08:04;10.45;;;8.73;;
24206;SDS011;12351;52.284;9.160;2023-07-30T09:10:53;9.65;;;8.30;;
24206;SDS011;12351;52.284;9.160;2023-07-30T09:13:41;10.43;;;8.58;;
24206;SDS011;12351;52.284;9.160;2023-07-30T09:16:28;12.15;;;8.68;;
24206;SDS011;12351;52.284;9.160;2023-07-30T09:19:16;9.85;;;8.40;;
24206;SDS011;12351;52.284;9.160;2023-07-30T09:22:04;10.85;;;8.40;;
24206;SDS011;12351;52.284;9.160;2023-07-30T09:24:52;12.20;;;9.33;;
24206;SDS011;12351;52.284;9.160;2023-07-30T09:27:40;13.48;;;9.98;;
24206;SDS011;12351;52.284;9.160;2023-07-30T09:30:27;14.45;;;10.43;;
24206;SDS011;12351;52.284;9.160;2023-07-30T09:33:17;10.43;;;8.88;;
24206;SDS011;12351;52.284;9.160;2023-07-30T09:36:05;12.40;;;9.43;;
24206;SDS011;12351;52.284;9.160;2023-07-30T09:38:54;11.60;;;9.23;;
24206;SDS011;12351;52.284;9.160;2023-07-30T09:41:42;13.03;;;10.15;;
24206;SDS011;12351;52.284;9.160;2023-07-30T09:44:29;13.28;;;9.60;;
24206;SDS011;12351;52.284;9.160;2023-07-30T09:47:19;16.77;;;10.57;;
24206;SDS011;12351;52.284;9.160;2023-07-30T09:50:06;18.45;;;10.95;;
24206;SDS011;12351;52.284;9.160;2023-07-30T09:52:54;15.53;;;11.20;;
24206;SDS011;12351;52.284;9.160;2023-07-30T09:55:43;15.97;;;11.37;;
24206;SDS011;12351;52.284;9.160;2023-07-30T09:58:30;15.68;;;11.18;;
24206;SDS011;12351;52.284;9.160;2023-07-30T10:01:18;16.82;;;11.70;;
24206;SDS011;12351;52.284;9.160;2023-07-30T10:04:08;15.78;;;12.00;;
24206;SDS011;12351;52.284;9.160;2023-07-30T10:06:58;14.98;;;11.60;;
24206;SDS011;12351;52.284;9.160;2023-07-30T10:09:45;15.05;;;11.40;;
24206;SDS011;12351;52.284;9.160;2023-07-30T10:12:38;17.82;;;12.28;;
24206;SDS011;12351;52.284;9.160;2023-07-30T10:15:27;14.60;;;11.80;;
24206;SDS011;12351;52.284;9.160;2023-07-30T10:18:15;15.28;;;11.80;;
24206;SDS011;12351;52.284;9.160;2023-07-30T10:21:01;17.73;;;12.37;;
24206;SDS011;12351;52.284;9.160;2023-07-30T10:23:57;17.95;;;13.50;;
24206;SDS011;12351;52.284;9.160;2023-07-30T10:26:40;18.67;;;13.35;;
24206;SDS011;12351;52.284;9.160;2023-07-30T10:29:27;16.17;;;12.25;;
24206;SDS011;12351;52.284;9.160;2023-07-30T10:32:14;14.28;;;12.25;;
24206;SDS011;12351;52.284;9.160;2023-07-30T10:35:01;17.73;;;11.38;;
24206;SDS011;12351;52.284;9.160;2023-07-30T10:37:48;13.72;;;10.53;;
24206;SDS011;12351;52.284;9.160;2023-07-30T10:40:38;15.08;;;10.85;;
24206;SDS011;12351;52.284;9.160;2023-07-30T10:43:27;15.63;;;10.48;;
24206;SDS011;12351;52.284;9.160;2023-07-30T10:46:15;14.18;;;9.73;;
24206;SDS011;12351;52.284;9.160;2023-07-30T10:49:04;16.02;;;9.43;;
24206;SDS011;12351;52.284;9.160;2023-07-30T10:51:52;16.05;;;12.35;;
24206;SDS011;12351;52.284;9.160;2023-07-30T10:54:40;15.78;;;11.97;;
24206;SDS011;12351;52.284;9.160;2023-07-30T10:57:31;14.47;;;11.93;;
24206;SDS011;12351;52.284;9.160;2023-07-30T11:00:18;19.17;;;12.00;;
24206;SDS011;12351;52.284;9.160;2023-07-30T11:03:05;18.67;;;10.38;;
24206;SDS011;12351;52.284;9.160;2023-07-30T11:05:52;13.50;;;10.15;;
24206;SDS011;12351;52.284;9.160;2023-07-30T11:08:43;15.80;;;9.58;;
24206;SDS011;12351;52.284;9.160;2023-07-30T11:11:30;11.33;;;7.92;;
24206;SDS011;12351;52.284;9.160;2023-07-30T11:14:19;12.13;;;8.20;;
24206;SDS011;12351;52.284;9.160;2023-07-30T11:17:08;13.43;;;8.15;;
24206;SDS011;12351;52.284;9.160;2023-07-30T11:19:55;12.55;;;8.03;;
24206;SDS011;12351;52.284;9.160;2023-07-30T11:22:42;11.83;;;7.60;;
24206;SDS011;12351;52.284;9.160;2023-07-30T11:25:29;11.63;;;7.60;;
24206;SDS011;12351;52.284;9.160;2023-07-30T11:31:11;13.60;;;7.50;;
24206;SDS011;12351;52.284;9.160;2023-07-30T11:33:59;10.43;;;7.30;;
24206;SDS011;12351;52.284;9.160;2023-07-30T11:36:46;12.37;;;7.58;;
24206;SDS011;12351;52.284;9.160;2023-07-30T11:39:34;12.28;;;6.85;;
24206;SDS011;12351;52.284;9.160;2023-07-30T11:42:21;11.43;;;7.33;;
24206;SDS011;12351;52.284;9.160;2023-07-30T11:50:49;10.28;;;6.58;;
24206;SDS011;12351;52.284;9.160;2023-07-30T11:56:29;11.53;;;6.40;;
24206;SDS011;12351;52.284;9.160;2023-07-30T11:59:17;10.03;;;6.85;;
24206;SDS011;12351;52.284;9.160;2023-07-30T12:02:06;9.50;;;6.63;;
24206;SDS011;12351;52.284;9.160;2023-07-30T12:04:55;10.85;;;6.83;;
24206;SDS011;12351;52.284;9.160;2023-07-30T12:07:42;10.70;;;6.67;;
24206;SDS011;12351;52.284;9.160;2023-07-30T12:13:19;9.63;;;6.27;;
24206;SDS011;12351;52.284;9.160;2023-07-30T12:16:06;10.53;;;5.40;;
24206;SDS011;12351;52.284;9.160;2023-07-30T12:18:53;9.85;;;5.80;;
24206;SDS011;12351;52.284;9.160;2023-07-30T12:21:39;9.85;;;6.05;;
24206;SDS011;12351;52.284;9.160;2023-07-30T12:24:27;10.43;;;5.15;;
24206;SDS011;12351;52.284;9.160;2023-07-30T12:27:14;8.13;;;4.93;;
24206;SDS011;12351;52.284;9.160;2023-07-30T12:30:00;8.10;;;5.60;;
24206;SDS011;12351;52.284;9.160;2023-07-30T12:32:48;6.90;;;4.60;;
24206;SDS011;12351;52.284;9.160;2023-07-30T12:35:35;7.87;;;4.30;;
24206;SDS011;12351;52.284;9.160;2023-07-30T12:38:22;6.80;;;4.03;;
24206;SDS011;12351;52.284;9.160;2023-07-30T12:41:08;7.30;;;3.60;;
24206;SDS011;12351;52.284;9.160;2023-07-30T12:43:55;7.50;;;4.03;;
24206;SDS011;12351;52.284;9.160;2023-07-30T12:46:42;8.07;;;3.90;;
24206;SDS011;12351;52.284;9.160;2023-07-30T12:49:29;7.27;;;4.13;;
24206;SDS011;12351;52.284;9.160;2023-07-30T12:52:16;6.27;;;3.90;;
24206;SDS011;12351;52.284;9.160;2023-07-30T12:55:03;7.27;;;3.50;;
24206;SDS011;12351;52.284;9.160;2023-07-30T12:57:51;6.53;;;3.70;;
24206;SDS011;12351;52.284;9.160;2023-07-30T13:00:37;7.43;;;3.80;;
24206;SDS011;12351;52.284;9.160;2023-07-30T13:03:24;8.57;;;3.93;;
24206;SDS011;12351;52.284;9.160;2023-07-30T13:06:11;6.23;;;3.30;;
24206;SDS011;12351;52.284;9.160;2023-07-30T13:08:58;7.43;;;3.20;;
24206;SDS011;12351;52.284;9.160;2023-07-30T13:11:44;6.00;;;2.83;;
24206;SDS011;12351;52.284;9.160;2023-07-30T13:14:31;6.20;;;2.80;;
24206;SDS011;12351;52.284;9.160;2023-07-30T13:17:18;5.40;;;2.90;;
24206;SDS011;12351;52.284;9.160;2023-07-30T13:20:05;5.10;;;2.73;;
24206;SDS011;12351;52.284;9.160;2023-07-30T13:22:53;4.13;;;2.30;;
24206;SDS011;12351;52.284;9.160;2023-07-30T13:25:40;4.57;;;2.00;;
24206;SDS011;12351;52.284;9.160;2023-07-30T13:28:27;7.83;;;2.20;;
24206;SDS011;12351;52.284;9.160;2023-07-30T13:31:14;2.80;;;2.00;;
24206;SDS011;12351;52.284;9.160;2023-07-30T13:34:02;7.10;;;2.13;;
24206;SDS011;12351;52.284;9.160;2023-07-30T13:36:49;3.93;;;1.87;;
24206;SDS011;12351;52.284;9.160;2023-07-30T13:39:36;3.90;;;1.50;;
24206;SDS011;12351;52.284;9.160;2023-07-30T13:42:23;3.07;;;1.40;;
24206;SDS011;12351;52.284;9.160;2023-07-30T13:45:10;5.27;;;1.40;;
24206;SDS011;12351;52.284;9.160;2023-07-30T13:47:57;2.50;;;1.20;;
24206;SDS011;12351;52.284;9.160;2023-07-30T13:50:44;3.63;;;1.13;;
24206;SDS011;12351;52.284;9.160;2023-07-30T13:53:30;1.93;;;1.13;;
24206;SDS011;12351;52.284;9.160;2023-07-30T13:56:18;4.63;;;1.37;;
24206;SDS011;12351;52.284;9.160;2023-07-30T13:59:05;3.30;;;1.50;;
24206;SDS011;12351;52.284;9.160;2023-07-30T14:01:52;3.60;;;1.80;;
24206;SDS011;12351;52.284;9.160;2023-07-30T14:04:38;3.67;;;1.67;;
24206;SDS011;12351;52.284;9.160;2023-07-30T14:07:25;3.90;;;1.40;;
24206;SDS011;12351;52.284;9.160;2023-07-30T14:10:12;4.97;;;1.50;;
24206;SDS011;12351;52.284;9.160;2023-07-30T14:12:59;3.57;;;1.50;;
24206;SDS011;12351;52.284;9.160;2023-07-30T14:15:46;4.63;;;1.83;;
24206;SDS011;12351;52.284;9.160;2023-07-30T14:18:33;5.57;;;1.40;;
24206;SDS011;12351;52.284;9.160;2023-07-30T14:21:20;3.40;;;1.40;;
24206;SDS011;12351;52.284;9.160;2023-07-30T14:24:07;6.07;;;1.40;;
24206;SDS011;12351;52.284;9.160;2023-07-30T14:26:54;5.03;;;1.60;;
24206;SDS011;12351;52.284;9.160;2023-07-30T14:29:41;5.60;;;1.60;;
24206;SDS011;12351;52.284;9.160;2023-07-30T14:32:28;3.13;;;1.33;;
24206;SDS011;12351;52.284;9.160;2023-07-30T14:35:15;4.03;;;1.40;;
24206;SDS011;12351;52.284;9.160;2023-07-30T14:38:01;6.10;;;1.40;;
24206;SDS011;12351;52.284;9.160;2023-07-30T14:40:48;2.77;;;1.30;;
24206;SDS011;12351;52.284;9.160;2023-07-30T14:43:35;3.03;;;1.30;;
24206;SDS011;12351;52.284;9.160;2023-07-30T14:46:22;3.97;;;1.27;;
24206;SDS011;12351;52.284;9.160;2023-07-30T14:49:09;4.97;;;1.20;;
24206;SDS011;12351;52.284;9.160;2023-07-30T14:51:56;1.93;;;1.00;;
24206;SDS011;12351;52.284;9.160;2023-07-30T14:54:44;4.23;;;1.60;;
24206;SDS011;12351;52.284;9.160;2023-07-30T14:57:30;4.23;;;2.47;;
24206;SDS011;12351;52.284;9.160;2023-07-30T15:00:18;3.00;;;0.87;;
24206;SDS011;12351;52.284;9.160;2023-07-30T15:03:05;3.00;;;0.80;;
24206;SDS011;12351;52.284;9.160;2023-07-30T15:05:52;3.87;;;0.97;;
24206;SDS011;12351;52.284;9.160;2023-07-30T15:08:38;2.03;;;0.70;;
24206;SDS011;12351;52.284;9.160;2023-07-30T15:11:25;2.60;;;0.67;;
24206;SDS011;12351;52.284;9.160;2023-07-30T15:14:13;2.77;;;0.90;;
24206;SDS011;12351;52.284;9.160;2023-07-30T15:16:59;2.60;;;0.90;;
24206;SDS011;12351;52.284;9.160;2023-07-30T15:19:46;2.90;;;0.80;;
24206;SDS011;12351;52.284;9.160;2023-07-30T15:22:34;2.53;;;1.10;;
24206;SDS011;12351;52.284;9.160;2023-07-30T15:25:21;1.40;;;0.77;;
24206;SDS011;12351;52.284;9.160;2023-07-30T15:28:08;3.03;;;0.90;;
24206;SDS011;12351;52.284;9.160;2023-07-30T15:30:54;1.40;;;0.70;;
24206;SDS011;12351;52.284;9.160;2023-07-30T15:33:42;4.30;;;0.83;;
24206;SDS011;12351;52.284;9.160;2023-07-30T15:36:29;1.63;;;0.83;;
24206;SDS011;12351;52.284;9.160;2023-07-30T15:39:17;4.70;;;0.93;;
24206;SDS011;12351;52.284;9.160;2023-07-30T15:42:06;3.30;;;0.70;;
24206;SDS011;12351;52.284;9.160;2023-07-30T15:44:53;3.70;;;0.90;;
24206;SDS011;12351;52.284;9.160;2023-07-30T15:47:40;5.50;;;1.00;;
24206;SDS011;12351;52.284;9.160;2023-07-30T15:50:27;1.77;;;1.00;;
24206;SDS011;12351;52.284;9.160;2023-07-30T15:53:14;5.17;;;0.80;;
24206;SDS011;12351;52.284;9.160;2023-07-30T15:56:01;2.63;;;0.80;;
24206;SDS011;12351;52.284;9.160;2023-07-30T15:58:49;2.77;;;0.93;;
24206;SDS011;12351;52.284;9.160;2023-07-30T16:01:36;2.10;;;0.90;;
24206;SDS011;12351;52.284;9.160;2023-07-30T16:04:23;4.00;;;0.80;;
24206;SDS011;12351;52.284;9.160;2023-07-30T16:07:10;2.17;;;1.00;;
24206;SDS011;12351;52.284;9.160;2023-07-30T16:09:57;4.73;;;1.13;;
24206;SDS011;12351;52.284;9.160;2023-07-30T16:12:44;3.47;;;1.10;;
24206;SDS011;12351;52.284;9.160;2023-07-30T16:15:30;2.63;;;0.90;;
24206;SDS011;12351;52.284;9.160;2023-07-30T16:18:18;2.27;;;0.93;;
24206;SDS011;12351;52.284;9.160;2023-07-30T16:21:05;2.77;;;0.83;;
24206;SDS011;12351;52.284;9.160;2023-07-30T16:23:52;3.47;;;1.03;;
24206;SDS011;12351;52.284;9.160;2023-07-30T16:26:38;2.13;;;1.03;;
24206;SDS011;12351;52.284;9.160;2023-07-30T16:29:26;4.00;;;1.03;;
24206;SDS011;12351;52.284;9.160;2023-07-30T16:32:13;4.00;;;0.77;;
24206;SDS011;12351;52.284;9.160;2023-07-30T16:34:59;3.63;;;1.10;;
24206;SDS011;12351;52.284;9.160;2023-07-30T16:37:46;2.03;;;0.90;;
24206;SDS011;12351;52.284;9.160;2023-07-30T16:40:33;3.87;;;1.10;;
24206;SDS011;12351;52.284;9.160;2023-07-30T16:43:20;4.20;;;1.07;;
24206;SDS011;12351;52.284;9.160;2023-07-30T16:46:07;6.40;;;1.10;;
24206;SDS011;12351;52.284;9.160;2023-07-30T16:48:56;4.17;;;1.10;;
24206;SDS011;12351;52.284;9.160;2023-07-30T16:51:43;3.43;;;1.20;;
24206;SDS011;12351;52.284;9.160;2023-07-30T16:54:30;3.63;;;1.20;;
24206;SDS011;12351;52.284;9.160;2023-07-30T16:57:17;2.83;;;1.00;;
24206;SDS011;12351;52.284;9.160;2023-07-30T17:00:04;2.73;;;1.00;;